Port Wash, New York
Current Conditions -  °F | °C
As of 7:51 PM on Thursday 18 Dec 2014 (Local Time) from KLGA Reporting Station
Broken Clouds Broken Clouds  
Wind Chill: -1°   Ceiling: 3100
Heat Index:   Visibility: 10mi
Dew Point: -2°   Wind: 16mph
Humidity: 65%   Direction: 320°NW
Pressure: 29.97"   Gusts: NA
Location:  40.8387°N, 73.6912°W
Report Text: KLGA 190051Z 32014KT 10SM BKN031 04/M02 A2997 RMK AO2 SLP148 T00391022
Loading
Personal Weather Stations






























Interactive Weather Map New forecast layout! Learn more

10-Day Weather Forecast

Advertisements
Track Severe Weather on mobile